CST,Max TemperatureF,Mean TemperatureF,Min TemperatureF,Max Dew PointF,MeanDew PointF,Min DewpointF,Max Humidity, Mean Humidity, Min Humidity, Max Sea Level PressureIn, Mean Sea Level PressureIn, Min Sea Level PressureIn, Max VisibilityMiles, Mean VisibilityMiles, Min VisibilityMiles, Max Wind SpeedMPH, Mean Wind SpeedMPH, Max Gust SpeedMPH,PrecipitationIn, CloudCover, Events, WindDirDegrees
2013-1-1,21,14,7,18,11,1,92,83,73,30.32,30.22,30.06,10,8,4,15,7,18,T,7,Snow,200
2013-1-2,31,16,1,27,20,3,100,89,78,30.23,30.07,29.94,10,9,5,21,9,28,T,7,Snow,292
2013-1-3,26,16,5,16,10,1,88,81,73,30.41,30.32,30.21,10,9,2,26,9,33,T,4,Snow,288
2013-1-4,28,17,5,13,10,3,96,73,50,30.22,30.18,30.10,10,10,10,12,3,16,0.00,0,,236
2013-1-5,28,14,-1,19,10,-3,95,79,63,30.23,30.08,29.94,10,8,1,28,10,33,T,4,Snow,315
2013-1-6,28,15,2,19,11,0,92,80,68,30.31,30.19,29.96,10,10,10,24,7,31,0.00,1,,225
2013-1-7,38,24,10,24,19,10,100,77,54,30.04,29.99,29.93,10,10,7,21,4,28,0.00,0,,240
2013-1-8,33,20,7,28,18,7,96,87,75,30.09,29.92,29.80,10,8,0,14,5,,0.00,2,Fog-Snow,313
2013-1-9,39,29,19,27,25,18,92,73,54,30.38,30.27,30.12,10,10,10,17,9,22,0.00,0,,220
2013-1-10,37,34,30,34,29,22,100,83,41,30.24,29.91,29.59,10,8,1,16,12,23,0.08,5,Rain,163
2013-1-11,36,27,17,36,31,12,100,92,84,29.64,29.49,29.35,10,3,0,26,12,35,0.02,8,Fog-Rain-Snow,212
2013-1-12,17,11,4,10,3,-1,84,76,67,30.20,29.99,29.61,10,8,1,29,16,38,T,6,Snow,300
2013-1-13,13,8,3,4,0,-3,86,74,61,30.34,30.26,30.18,10,10,9,17,8,22,T,3,Snow,299
2013-1-14,23,13,3,12,7,1,91,75,59,30.47,30.36,30.24,10,10,9,15,4,18,T,2,Snow,221
2013-1-15,28,19,9,12,9,5,84,62,39,30.30,30.14,29.89,10,10,10,16,8,23,0.00,1,,207
2013-1-16,43,29,14,32,23,6,92,77,62,30.31,29.96,29.76,10,10,8,23,11,31,T,5,Snow,288
2013-1-17,33,23,13,27,20,4,92,77,52,30.46,30.36,30.17,10,10,10,18,5,26,T,6,,183
2013-1-18,46,38,29,30,27,24,85,70,40,30.15,29.91,29.82,10,10,10,17,8,23,0.00,0,,232
2013-1-19,42,24,6,32,20,-2,79,68,52,30.40,30.05,29.79,10,10,10,39,17,51,0.00,2,,304
2013-1-20,10,4,-2,4,0,-9,88,77,65,30.51,30.42,30.33,10,7,0,23,9,30,0.09,6,Fog-Snow,312
2013-1-21,3,-3,-9,-4,-11,-16,82,71,59,30.52,30.46,30.37,10,10,9,25,11,33,T,2,Snow,303
2013-1-22,14,8,1,9,2,-5,84,74,63,30.43,30.35,30.21,10,10,9,14,5,18,T,5,Snow,187
2013-1-23,17,7,-4,9,1,-13,88,75,61,30.63,30.41,30.20,10,10,9,22,10,26,0.00,0,,343
2013-1-24,14,4,-6,4,-5,-14,75,69,63,30.68,30.43,30.18,10,10,10,24,12,29,0.00,2,,145
2013-1-25,27,16,5,19,8,-2,88,73,57,30.33,30.18,30.02,10,10,10,24,9,31,0.00,3,,310
2013-1-26,34,19,3,23,11,-3,79,69,59,30.33,30.16,29.99,10,10,10,20,10,26,0.00,2,,137
2013-1-27,34,33,32,34,30,23,100,82,64,29.97,29.81,29.71,10,5,0,14,7,26,0.20,7,Fog-Rain,146
2013-1-28,35,34,32,34,33,32,100,96,92,29.87,29.75,29.62,5,1,0,14,5,17,0.01,8,Fog-Rain,105
2013-1-29,35,29,22,32,26,18,100,86,70,29.86,29.71,29.57,10,9,1,28,12,36,T,7,,347
2013-1-30,22,11,-1,18,7,-8,85,76,60,29.99,29.87,29.79,10,9,3,29,19,37,T,7,Snow,327
2013-1-31,-1,-4,-8,-9,-13,-15,76,68,50,30.46,30.29,30.00,10,10,4,28,19,36,T,3,Snow,310